createdAt,value
2019-05-22T00:00:41.890Z,62.69
2019-05-22T00:03:16.092Z,63.30
2019-05-22T00:05:48.187Z,62.77
2019-05-22T00:08:19.683Z,62.72
2019-05-22T00:10:53.933Z,62.87
2019-05-22T00:13:31.613Z,63.20
2019-05-22T00:16:04.120Z,63.42
2019-05-22T00:18:37.909Z,62.58
2019-05-22T00:21:10.692Z,61.94
2019-05-22T00:23:42.629Z,61.96
2019-05-22T00:26:15.053Z,62.18
2019-05-22T00:28:46.017Z,62.32
2019-05-22T00:31:18.615Z,62.25
2019-05-22T00:33:49.667Z,62.80
2019-05-22T00:36:20.919Z,62.43
2019-05-22T00:38:51.865Z,63.10
2019-05-22T00:41:24.560Z,63.29
2019-05-22T00:43:56.963Z,63.52
2019-05-22T00:46:28.724Z,64.02
2019-05-22T00:49:00.031Z,64.05
2019-05-22T00:51:50.112Z,64.46
2019-05-22T00:54:29.036Z,63.93
2019-05-22T00:57:15.647Z,63.39
2019-05-22T00:59:49.541Z,63.47
2019-05-22T01:02:27.450Z,63.18
2019-05-22T01:05:00.047Z,62.99
2019-05-22T01:07:39.411Z,62.60
2019-05-22T01:10:12.479Z,62.15
2019-05-22T01:12:46.875Z,61.65
2019-05-22T01:15:21.484Z,61.16
2019-05-22T01:17:54.514Z,60.59
2019-05-22T01:20:28.547Z,59.84
2019-05-22T01:23:03.686Z,59.44
2019-05-22T01:25:36.307Z,59.23
2019-05-22T01:28:09.186Z,59.48
2019-05-22T01:30:57.922Z,60.10
2019-05-22T01:33:37.728Z,60.41
2019-05-22T01:36:39.787Z,60.59
2019-05-22T01:39:26.379Z,60.44
2019-05-22T01:42:02.356Z,61.23
2019-05-22T01:44:36.453Z,61.04
2019-05-22T01:47:14.894Z,60.92
2019-05-22T01:49:52.878Z,61.37
2019-05-22T01:52:24.394Z,61.34
2019-05-22T01:54:57.878Z,60.69
2019-05-22T01:57:30.293Z,60.74
2019-05-22T02:00:03.876Z,60.82
2019-05-22T02:02:35.775Z,60.57
2019-05-22T02:05:09.226Z,59.95
2019-05-22T02:07:41.851Z,59.91
2019-05-22T02:10:17.597Z,59.79
2019-05-22T02:12:55.112Z,60.21
2019-05-22T02:15:27.792Z,60.22
2019-05-22T02:18:00.611Z,60.32
2019-05-22T02:20:31.431Z,61.46
2019-05-22T02:23:02.554Z,63.31
2019-05-22T02:25:34.624Z,65.35
2019-05-22T02:28:06.320Z,66.00
2019-05-22T02:30:40.944Z,66.28
2019-05-22T02:33:13.808Z,66.80
2019-05-22T02:35:45.441Z,67.17
2019-05-22T02:38:16.897Z,68.23
2019-05-22T02:40:49.413Z,68.72
2019-05-22T02:43:22.054Z,70.98
2019-05-22T02:45:53.147Z,72.69
2019-05-22T02:48:25.966Z,73.71
2019-05-22T02:50:57.463Z,74.88
2019-05-22T02:53:29.906Z,76.29
2019-05-22T02:56:00.726Z,76.84
2019-05-22T02:58:31.682Z,77.23
2019-05-22T03:01:05.855Z,77.61
2019-05-22T03:03:38.889Z,77.83
2019-05-22T03:06:14.095Z,76.06
2019-05-22T03:09:23.994Z,72.61
2019-05-22T03:12:11.655Z,70.14
2019-05-22T03:14:43.563Z,66.87
2019-05-22T03:17:30.501Z,63.89
2019-05-22T03:20:04.613Z,62.62
2019-05-22T03:22:41.068Z,59.28
2019-05-22T03:25:12.993Z,55.76
2019-05-22T03:27:47.117Z,53.69
2019-05-22T03:30:24.785Z,51.30
2019-05-22T03:32:57.708Z,49.48
2019-05-22T03:35:31.796Z,46.44
2019-05-22T03:38:04.806Z,45.18
2019-05-22T03:40:37.380Z,45.02
2019-05-22T03:43:20.551Z,44.28
2019-05-22T03:45:54.562Z,42.31
2019-05-22T03:48:26.638Z,40.53
2019-05-22T03:51:01.075Z,39.31
2019-05-22T03:53:32.456Z,39.51
2019-05-22T03:56:03.925Z,39.14
2019-05-22T03:58:36.482Z,36.99
2019-05-22T04:01:08.284Z,34.94
2019-05-22T04:03:40.670Z,33.97
2019-05-22T04:06:12.614Z,32.89
2019-05-22T04:08:43.983Z,31.30
2019-05-22T04:11:14.977Z,30.45
2019-05-22T04:13:45.821Z,30.30
2019-05-22T04:16:19.246Z,30.82
2019-05-22T04:18:51.467Z,30.62
2019-05-22T04:21:22.515Z,30.14
2019-05-22T04:23:53.675Z,29.98
2019-05-22T04:26:26.819Z,30.50
2019-05-22T04:28:58.117Z,32.99
2019-05-22T04:32:10.826Z,33.88
2019-05-22T04:34:41.619Z,33.47
2019-05-22T04:37:14.948Z,34.81
2019-05-22T04:39:49.578Z,32.74
2019-05-22T04:42:21.849Z,31.67
2019-05-22T04:45:11.469Z,29.85
2019-05-22T04:47:43.695Z,28.95
2019-05-22T04:50:16.131Z,28.02
2019-05-22T04:52:49.982Z,27.59
2019-05-22T04:55:21.246Z,25.01
2019-05-22T04:57:52.699Z,23.94
2019-05-22T05:00:26.350Z,23.17
2019-05-22T05:02:57.073Z,25.48
2019-05-22T05:05:30.113Z,26.16
2019-05-22T05:08:01.358Z,25.78
2019-05-22T05:10:34.525Z,25.53
2019-05-22T05:13:05.808Z,24.82
2019-05-22T05:15:37.393Z,24.49
2019-05-22T05:18:08.630Z,23.26
2019-05-22T05:20:39.817Z,22.30
2019-05-22T05:23:10.400Z,21.75
2019-05-22T05:25:42.520Z,20.69
2019-05-22T05:28:14.863Z,21.89
2019-05-22T05:30:45.727Z,23.53
2019-05-22T05:33:16.523Z,23.37
2019-05-22T05:35:50.477Z,24.20
2019-05-22T05:38:23.809Z,23.52
2019-05-22T05:40:57.947Z,21.30
2019-05-22T05:43:29.319Z,19.73
2019-05-22T05:46:00.205Z,19.35
2019-05-22T05:48:35.292Z,19.12
2019-05-22T05:51:43.212Z,18.74
2019-05-22T05:54:15.508Z,19.06
2019-05-22T05:56:49.908Z,19.90
2019-05-22T05:59:26.682Z,20.59
2019-05-22T06:01:58.306Z,21.07
2019-05-22T06:04:35.891Z,21.02
2019-05-22T06:07:22.011Z,20.44
2019-05-22T06:09:59.568Z,20.56
2019-05-22T06:12:32.028Z,20.45
2019-05-22T06:15:03.754Z,20.23
2019-05-22T06:18:10.781Z,20.51
2019-05-22T06:20:43.148Z,21.08
2019-05-22T06:23:52.554Z,22.53
2019-05-22T06:26:52.463Z,21.68
2019-05-22T06:29:27.797Z,21.85
2019-05-22T06:32:43.393Z,22.16
2019-05-22T06:35:15.157Z,20.96
2019-05-22T06:37:54.684Z,20.25
2019-05-22T06:40:27.772Z,21.47
2019-05-22T06:43:37.908Z,21.16
2019-05-22T06:46:12.053Z,21.24
2019-05-22T06:48:44.582Z,21.15
2019-05-22T06:51:19.370Z,22.58
2019-05-22T06:53:48.517Z,21.74
2019-05-22T06:56:23.599Z,21.25
2019-05-22T06:58:52.225Z,21.21
2019-05-22T07:01:23.353Z,21.04
2019-05-22T07:03:54.060Z,20.49
2019-05-22T07:06:24.789Z,21.72
2019-05-22T07:08:56.138Z,21.02
2019-05-22T07:11:26.906Z,21.43
2019-05-22T07:13:59.415Z,21.83
2019-05-22T07:16:31.723Z,21.89
2019-05-22T07:19:04.270Z,21.74
2019-05-22T07:21:35.888Z,21.78
2019-05-22T07:24:06.968Z,22.44
2019-05-22T07:26:41.531Z,21.74
2019-05-22T07:29:12.462Z,21.75
2019-05-22T07:31:42.981Z,21.26
2019-05-22T07:34:15.344Z,21.02
2019-05-22T07:36:48.050Z,21.90
2019-05-22T07:39:19.226Z,21.44
2019-05-22T07:41:51.092Z,21.70
2019-05-22T07:44:22.883Z,22.40
2019-05-22T07:46:54.854Z,23.00
2019-05-22T07:49:26.005Z,23.20
2019-05-22T07:52:01.595Z,24.31
2019-05-22T07:54:29.838Z,24.31
2019-05-22T07:57:01.299Z,25.62
2019-05-22T07:59:32.702Z,27.59
2019-05-22T08:02:04.574Z,28.25
2019-05-22T08:04:36.618Z,29.53
2019-05-22T08:07:09.163Z,32.55
2019-05-22T08:09:40.350Z,33.99
2019-05-22T08:12:13.210Z,35.55
2019-05-22T08:14:44.704Z,36.39
2019-05-22T08:17:18.171Z,36.66
2019-05-22T08:19:50.317Z,38.13
2019-05-22T08:22:22.616Z,39.54
2019-05-22T08:24:53.660Z,40.02
2019-05-22T08:27:26.283Z,40.16
2019-05-22T08:29:57.242Z,40.94
2019-05-22T08:32:29.674Z,41.64
2019-05-22T08:35:00.972Z,41.35
2019-05-22T08:37:35.571Z,42.14
2019-05-22T08:40:08.041Z,43.02
2019-05-22T08:42:40.576Z,43.85
2019-05-22T08:45:12.514Z,44.75
2019-05-22T08:47:43.791Z,44.85
2019-05-22T08:50:17.402Z,45.24
2019-05-22T08:52:49.587Z,45.58
2019-05-22T08:55:21.002Z,44.50
2019-05-22T08:57:51.453Z,45.80
2019-05-22T09:00:24.421Z,44.60
2019-05-22T09:02:55.922Z,43.75
2019-05-22T09:05:27.427Z,43.72
2019-05-22T09:07:59.730Z,45.27
2019-05-22T09:10:30.559Z,45.86
2019-05-22T09:13:01.408Z,47.16
2019-05-22T09:15:33.570Z,43.38
2019-05-22T09:18:04.415Z,43.80
2019-05-22T09:20:48.773Z,42.47
2019-05-22T09:23:08.654Z,42.46
2019-05-22T09:25:39.149Z,43.03
2019-05-22T09:28:11.628Z,42.92
2019-05-22T09:30:42.977Z,40.89
2019-05-22T09:33:15.019Z,41.51
2019-05-22T09:35:46.064Z,41.72
2019-05-22T09:38:17.209Z,41.61
2019-05-22T09:40:48.598Z,41.88
2019-05-22T09:43:19.010Z,40.93
2019-05-22T09:45:49.459Z,39.93
2019-05-22T09:48:20.500Z,40.92
2019-05-22T09:50:52.553Z,40.87
2019-05-22T09:53:23.426Z,39.22
2019-05-22T09:55:55.378Z,39.50
2019-05-22T09:58:28.008Z,41.01
2019-05-22T10:00:59.003Z,41.11
2019-05-22T10:03:29.524Z,41.57
2019-05-22T10:06:01.240Z,42.10
2019-05-22T10:08:32.391Z,42.36
2019-05-22T10:11:03.680Z,42.07
2019-05-22T10:13:34.771Z,41.96
2019-05-22T10:16:05.617Z,40.93
2019-05-22T10:18:36.239Z,39.60
2019-05-22T10:21:07.642Z,40.04
2019-05-22T10:23:38.136Z,39.99
2019-05-22T10:26:08.806Z,42.32
2019-05-22T10:28:40.008Z,42.65
2019-05-22T10:31:11.699Z,39.39
2019-05-22T10:33:43.849Z,39.37
2019-05-22T10:36:14.453Z,39.69
2019-05-22T10:38:44.978Z,40.02
2019-05-22T10:41:16.082Z,39.35
2019-05-22T10:43:47.230Z,40.60
2019-05-22T10:46:17.791Z,41.00
2019-05-22T10:48:48.677Z,39.86
2019-05-22T10:51:20.230Z,40.69
2019-05-22T10:53:51.383Z,39.31
2019-05-22T10:56:21.884Z,39.92
2019-05-22T10:58:52.303Z,37.68
2019-05-22T11:01:23.643Z,38.23
2019-05-22T11:03:54.914Z,37.04
2019-05-22T11:06:26.285Z,38.13
2019-05-22T11:08:58.045Z,37.96
2019-05-22T11:11:29.736Z,37.99
2019-05-22T11:14:02.414Z,36.50
2019-05-22T11:16:33.062Z,36.80
2019-05-22T11:19:06.167Z,36.88
2019-05-22T11:21:37.604Z,44.36
2019-05-22T11:24:08.977Z,47.78
2019-05-22T11:26:39.984Z,49.96
2019-05-22T11:29:11.855Z,51.22
2019-05-22T11:31:44.572Z,52.32
2019-05-22T11:34:15.406Z,54.28
2019-05-22T11:36:46.348Z,53.31
2019-05-22T11:39:36.360Z,55.52
2019-05-22T11:41:53.126Z,57.25
2019-05-22T11:44:24.096Z,59.14
2019-05-22T11:46:54.901Z,58.39
2019-05-22T11:49:25.769Z,59.88
2019-05-22T11:51:58.002Z,59.97
2019-05-22T11:54:29.151Z,61.34
2019-05-22T11:57:00.170Z,61.47
2019-05-22T11:59:30.937Z,62.96
2019-05-22T12:02:01.599Z,64.36
2019-05-22T12:04:47.196Z,65.52
2019-05-22T12:07:06.072Z,65.33
2019-05-22T12:09:37.230Z,63.30
2019-05-22T12:12:10.305Z,62.85
2019-05-22T12:14:41.168Z,61.31
2019-05-22T12:17:12.898Z,60.60
2019-05-22T12:19:43.935Z,58.60
2019-05-22T12:22:19.842Z,56.53
2019-05-22T12:24:49.412Z,56.45
2019-05-22T12:27:20.291Z,56.26
2019-05-22T12:29:51.595Z,55.23
2019-05-22T12:32:22.323Z,54.75
2019-05-22T12:34:54.740Z,53.12
2019-05-22T12:37:27.286Z,53.42
2019-05-22T12:39:59.773Z,53.74
2019-05-22T12:42:30.589Z,54.13
2019-05-22T12:45:01.412Z,52.89
2019-05-22T12:47:32.231Z,53.96
2019-05-22T12:50:05.239Z,54.06
2019-05-22T12:52:37.961Z,53.37
2019-05-22T12:55:11.265Z,53.68
2019-05-22T12:57:46.028Z,53.99
2019-05-22T13:00:17.710Z,53.78
2019-05-22T13:02:48.886Z,53.08
2019-05-22T13:05:20.248Z,53.85
2019-05-22T13:07:52.228Z,52.69
2019-05-22T13:10:23.928Z,54.25
2019-05-22T13:12:56.234Z,53.37
2019-05-22T13:15:27.626Z,53.31
2019-05-22T13:18:01.332Z,53.10
2019-05-22T13:20:42.513Z,54.23
2019-05-22T13:23:10.204Z,54.32
2019-05-22T13:25:43.117Z,55.34
2019-05-22T13:28:17.318Z,55.77
2019-05-22T13:30:52.980Z,55.09
2019-05-22T13:33:27.829Z,55.25
2019-05-22T13:35:59.830Z,55.89
2019-05-22T13:38:30.812Z,56.52
2019-05-22T13:41:02.089Z,57.05
2019-05-22T13:43:35.215Z,57.55
2019-05-22T13:46:06.878Z,56.94
2019-05-22T13:48:37.957Z,55.29
2019-05-22T13:51:09.956Z,54.97
2019-05-22T13:53:41.859Z,54.62
2019-05-22T13:56:13.698Z,52.63
2019-05-22T13:58:44.864Z,52.64
2019-05-22T14:01:16.190Z,51.97
2019-05-22T14:03:47.071Z,50.33
2019-05-22T14:06:17.902Z,49.50
2019-05-22T14:08:48.488Z,49.41
2019-05-22T14:11:20.464Z,50.64
2019-05-22T14:13:53.212Z,51.80
2019-05-22T14:16:24.912Z,51.85
2019-05-22T14:18:56.097Z,51.71
2019-05-22T14:21:26.789Z,51.91
2019-05-22T14:23:57.980Z,52.31
2019-05-22T14:26:30.058Z,50.56
2019-05-22T14:29:01.483Z,48.38
2019-05-22T14:31:32.413Z,48.32
2019-05-22T14:34:04.764Z,49.56
2019-05-22T14:36:36.201Z,47.33
2019-05-22T14:39:08.504Z,47.55
2019-05-22T14:41:40.721Z,47.36
2019-05-22T14:44:11.610Z,47.01
2019-05-22T14:46:42.386Z,46.96
2019-05-22T14:49:13.282Z,46.63
2019-05-22T14:51:45.332Z,47.35
2019-05-22T14:54:16.768Z,44.97
2019-05-22T14:56:48.034Z,44.70
2019-05-22T14:59:19.215Z,46.61
2019-05-22T15:01:49.971Z,46.70
2019-05-22T15:04:21.780Z,47.84
2019-05-22T15:06:53.496Z,47.38
2019-05-22T15:09:24.465Z,45.57
2019-05-22T15:11:55.430Z,45.96
2019-05-22T15:14:26.643Z,44.33
2019-05-22T15:16:57.484Z,46.78
2019-05-22T15:19:29.546Z,47.37
2019-05-22T15:22:00.278Z,46.26
2019-05-22T15:24:31.493Z,46.61
2019-05-22T15:27:03.628Z,46.84
2019-05-22T15:29:34.468Z,46.17
2019-05-22T15:32:06.554Z,43.63
2019-05-22T15:34:39.441Z,44.28
2019-05-22T15:37:11.526Z,44.80
2019-05-22T15:39:43.291Z,45.61
2019-05-22T15:42:27.813Z,45.72
2019-05-22T15:45:00.399Z,44.70
2019-05-22T15:47:50.308Z,45.86
2019-05-22T15:50:05.752Z,45.65
2019-05-22T15:52:38.298Z,45.80
2019-05-22T15:55:13.292Z,45.47
2019-05-22T15:57:44.464Z,44.79
2019-05-22T16:00:19.590Z,44.41
2019-05-22T16:02:51.110Z,44.07
2019-05-22T16:05:23.611Z,43.94
2019-05-22T16:07:55.333Z,43.66
2019-05-22T16:10:26.362Z,44.48
2019-05-22T16:12:58.204Z,43.21
2019-05-22T16:15:30.840Z,43.54
2019-05-22T16:18:11.542Z,42.97
2019-05-22T16:20:41.677Z,42.96
2019-05-22T16:23:14.322Z,43.37
2019-05-22T16:25:45.149Z,44.52
2019-05-22T16:28:16.405Z,45.18
2019-05-22T16:30:47.145Z,46.16
2019-05-22T16:33:17.994Z,45.38
2019-05-22T16:35:48.817Z,45.69
2019-05-22T16:38:21.267Z,46.67
2019-05-22T16:40:52.192Z,46.86
2019-05-22T16:43:24.230Z,47.37
2019-05-22T16:45:56.625Z,47.99
2019-05-22T16:48:29.489Z,48.33
2019-05-22T16:51:00.993Z,48.10
2019-05-22T16:53:33.425Z,48.11
2019-05-22T16:56:05.663Z,48.07
2019-05-22T16:58:38.911Z,48.07
2019-05-22T17:01:10.266Z,49.12
2019-05-22T17:03:41.694Z,50.03
2019-05-22T17:06:30.997Z,50.40
2019-05-22T17:09:04.306Z,50.59
2019-05-22T17:11:35.516Z,51.24
2019-05-22T17:14:08.721Z,51.60
2019-05-22T17:16:41.570Z,51.28
2019-05-22T17:19:26.621Z,51.38
2019-05-22T17:21:46.320Z,52.56
2019-05-22T17:24:20.713Z,53.03
2019-05-22T17:26:52.812Z,52.98
2019-05-22T17:29:24.549Z,53.09
2019-05-22T17:31:55.962Z,52.66
2019-05-22T17:34:33.318Z,51.93
2019-05-22T17:37:12.013Z,51.62
2019-05-22T17:39:45.753Z,51.14
2019-05-22T17:42:23.626Z,51.44
2019-05-22T17:44:55.743Z,52.43
2019-05-22T17:47:28.094Z,53.49
2019-05-22T17:50:00.260Z,53.42
2019-05-22T17:52:32.192Z,53.66
2019-05-22T17:55:02.670Z,54.04
2019-05-22T17:57:33.417Z,54.50
2019-05-22T18:00:06.893Z,54.30
2019-05-22T18:02:37.904Z,55.01
2019-05-22T18:05:09.953Z,55.70
2019-05-22T18:07:40.829Z,54.98
2019-05-22T18:10:13.551Z,53.34
2019-05-22T18:12:44.398Z,53.66
2019-05-22T18:15:16.026Z,52.73
2019-05-22T18:17:48.907Z,52.49
2019-05-22T18:20:19.962Z,52.93
2019-05-22T18:22:50.945Z,53.67
2019-05-22T18:25:22.146Z,53.92
2019-05-22T18:27:53.648Z,54.45
2019-05-22T18:30:26.189Z,54.97
2019-05-22T18:32:57.314Z,55.47
2019-05-22T18:35:28.407Z,55.75
2019-05-22T18:38:04.159Z,55.74
2019-05-22T18:40:34.209Z,56.05
2019-05-22T18:43:06.054Z,57.02
2019-05-22T18:45:37.494Z,57.70
2019-05-22T18:48:11.096Z,57.98
2019-05-22T18:50:44.898Z,58.56
2019-05-22T18:53:16.363Z,59.20
2019-05-22T18:55:47.309Z,59.49
2019-05-22T18:58:19.139Z,59.66
2019-05-22T19:00:49.999Z,59.00
2019-05-22T19:03:22.233Z,58.91
2019-05-22T19:05:54.006Z,59.13
2019-05-22T19:08:26.006Z,59.50
2019-05-22T19:10:56.747Z,59.59
2019-05-22T19:13:27.323Z,59.19
2019-05-22T19:15:58.573Z,59.40
2019-05-22T19:18:29.450Z,58.94
2019-05-22T19:21:02.197Z,58.87
2019-05-22T19:23:32.877Z,58.63
2019-05-22T19:26:06.354Z,58.01
2019-05-22T19:28:43.333Z,58.22
2019-05-22T19:31:10.372Z,58.36
2019-05-22T19:34:01.263Z,58.06
2019-05-22T19:36:32.073Z,58.03
2019-05-22T19:39:05.346Z,57.72
2019-05-22T19:41:36.573Z,56.94
2019-05-22T19:44:09.471Z,57.97
2019-05-22T19:46:40.600Z,58.53
2019-05-22T19:49:12.421Z,58.72
2019-05-22T19:51:44.435Z,58.97
2019-05-22T19:54:15.817Z,59.34
2019-05-22T19:56:47.182Z,59.94
2019-05-22T19:59:19.153Z,60.29
2019-05-22T20:01:50.376Z,60.31
2019-05-22T20:04:21.644Z,60.29
2019-05-22T20:06:53.097Z,60.59
2019-05-22T20:09:25.758Z,61.00
2019-05-22T20:11:56.393Z,61.58
2019-05-22T20:14:30.434Z,62.37
2019-05-22T20:17:01.189Z,62.59
2019-05-22T20:19:32.045Z,63.07
2019-05-22T20:22:04.950Z,63.20
2019-05-22T20:24:37.477Z,63.37
2019-05-22T20:27:09.887Z,64.09
2019-05-22T20:29:41.582Z,64.63
2019-05-22T20:32:14.197Z,64.76
2019-05-22T20:34:45.420Z,64.41
2019-05-22T20:37:16.377Z,63.94
2019-05-22T20:39:47.519Z,63.63
2019-05-22T20:42:18.314Z,64.22
2019-05-22T20:44:50.141Z,63.84
2019-05-22T20:47:25.577Z,63.46
2019-05-22T20:49:57.555Z,63.10
2019-05-22T20:52:31.839Z,63.20
2019-05-22T20:55:03.253Z,63.34
2019-05-22T20:57:34.541Z,63.50
2019-05-22T21:00:07.272Z,63.54
2019-05-22T21:02:40.526Z,63.89
2019-05-22T21:05:13.260Z,64.21
2019-05-22T21:07:51.240Z,64.47
2019-05-22T21:10:42.953Z,64.58
2019-05-22T21:13:14.284Z,64.55
2019-05-22T21:15:45.392Z,64.40
2019-05-22T21:18:17.336Z,64.42
2019-05-22T21:20:55.126Z,64.36
2019-05-22T21:23:25.619Z,64.36
2019-05-22T21:25:56.385Z,64.59
2019-05-22T21:28:28.135Z,64.92
2019-05-22T21:30:59.410Z,65.15
2019-05-22T21:33:30.994Z,65.54
2019-05-22T21:36:02.170Z,65.88
2019-05-22T21:38:33.643Z,66.02
2019-05-22T21:41:04.875Z,66.33
2019-05-22T21:43:36.367Z,66.41
2019-05-22T21:46:08.072Z,66.37
2019-05-22T21:48:41.334Z,66.37
2019-05-22T21:51:12.830Z,66.40
2019-05-22T21:53:44.664Z,66.44
2019-05-22T21:56:15.705Z,66.60
2019-05-22T21:58:46.942Z,66.98
2019-05-22T22:01:25.968Z,66.91
2019-05-22T22:04:23.539Z,66.65
2019-05-22T22:06:55.492Z,66.66
2019-05-22T22:09:27.871Z,66.68
2019-05-22T22:11:59.321Z,66.78
2019-05-22T22:14:32.627Z,66.94
2019-05-22T22:17:04.023Z,66.60
2019-05-22T22:19:35.618Z,66.08
2019-05-22T22:22:10.891Z,64.69
2019-05-22T22:24:43.149Z,63.36
2019-05-22T22:27:15.375Z,63.67
2019-05-22T22:29:47.900Z,63.44
2019-05-22T22:32:20.913Z,63.80
2019-05-22T22:34:53.483Z,62.15
2019-05-22T22:37:26.185Z,60.94
2019-05-22T22:40:00.228Z,60.25
2019-05-22T22:42:36.603Z,60.58
2019-05-22T22:45:09.094Z,62.70
2019-05-22T22:47:44.981Z,63.44
2019-05-22T22:50:18.121Z,64.28
2019-05-22T22:52:51.090Z,64.65
2019-05-22T22:55:23.782Z,65.03
2019-05-22T22:57:55.626Z,65.10
2019-05-22T23:00:35.874Z,65.02
2019-05-22T23:03:09.987Z,65.54
2019-05-22T23:05:41.949Z,66.02
2019-05-22T23:08:16.456Z,66.37
2019-05-22T23:10:50.311Z,66.51
2019-05-22T23:13:22.884Z,66.76
2019-05-22T23:15:54.786Z,67.02
2019-05-22T23:19:11.491Z,67.46
2019-05-22T23:21:40.610Z,67.84
2019-05-22T23:24:14.711Z,68.10
2019-05-22T23:26:45.872Z,68.58
2019-05-22T23:29:17.297Z,66.65
2019-05-22T23:31:49.881Z,68.24
2019-05-22T23:34:20.557Z,67.06
2019-05-22T23:36:52.673Z,64.63
2019-05-22T23:39:24.149Z,66.00
2019-05-22T23:41:58.974Z,66.26
2019-05-22T23:44:31.693Z,66.53
2019-05-22T23:47:04.268Z,66.94
2019-05-22T23:49:37.439Z,67.38
2019-05-22T23:52:08.812Z,67.86
2019-05-22T23:54:40.434Z,68.30
2019-05-22T23:58:03.409Z,68.72
